Time;durP1;ratioP1;P1;durP2;ratioP2;P2;SDS_P1;SDS_P2;PMS_P1;PMS_P2;Temp;Humidity;BMP_temperature;BMP_pressure;BME280_temperature;BME280_humidity;BME280_pressure;Samples;Min_cycle;Max_cycle;Signal;HPM_P1;HPM_P2
2021/07/18 00:05:32;;;;;;;1999.90;999.90;;;;;;;22.23;63.99;101480.19;15533985;28;20038;-64
2021/07/18 00:13:24;;;;;;;1999.90;999.90;;;;;;;22.07;65.09;101463.41;15550086;28;20042;-64
2021/07/18 00:21:48;;;;;;;1999.90;999.90;;;;;;;22.05;64.38;101470.66;15550985;28;20379;-63
2021/07/18 00:29:48;;;;;;;1999.90;999.90;;;;;;;21.87;65.35;101473.34;15543812;28;20045;-63
2021/07/18 00:37:27;;;;;;;1999.90;999.90;;;;;;;21.85;65.30;101473.75;15527075;28;20388;-63
2021/07/18 00:45:04;;;;;;;1999.90;999.90;;;;;;;21.62;65.73;101473.13;15543455;28;20046;-63
2021/07/18 00:52:37;;;;;;;1999.90;999.90;;;;;;;21.36;66.18;101465.53;15526919;28;20042;-65
2021/07/18 01:00:26;;;;;;;1999.90;999.90;;;;;;;21.68;65.16;101465.91;15560623;28;20054;-64
2021/07/18 01:17:06;;;;;;;1999.90;999.90;;;;;;;21.26;65.65;101471.94;15499856;28;20054;-63
2021/07/18 02:10:29;;;;;;;1999.90;999.90;;;;;;;20.68;68.44;101476.03;15482073;28;20096;-64
2021/07/18 02:18:01;;;;;;;1999.90;999.90;;;;;;;20.65;68.42;101473.97;15555980;28;20065;-64
2021/07/18 02:25:35;;;;;;;1999.90;999.90;;;;;;;20.48;68.94;101465.22;15538377;28;20112;-64
2021/07/18 02:33:07;;;;;;;1999.90;999.90;;;;;;;20.31;69.84;101470.19;15555220;28;20046;-64
2021/07/18 02:40:41;;;;;;;1999.90;999.90;;;;;;;20.37;69.80;101467.84;15555035;28;20388;-64
2021/07/18 02:48:13;;;;;;;1999.90;999.90;;;;;;;20.33;69.89;101464.97;15536876;28;20056;-65
2021/07/18 02:55:46;;;;;;;1999.90;999.90;;;;;;;20.37;70.32;101448.00;15537799;28;20065;-64
2021/07/18 03:03:18;;;;;;;1999.90;999.90;;;;;;;20.21;70.71;101450.19;15550198;28;20112;-64
2021/07/18 03:10:52;;;;;;;;;;;;;;;20.26;70.96;101450.69;15554748;28;20045;-64
2021/07/18 03:18:25;;;;;;;1999.90;999.90;;;;;;;20.16;71.42;101440.81;15536072;28;19921;-64
2021/07/18 03:25:58;;;;;;;1999.90;999.90;;;;;;;20.14;71.95;101448.91;15554006;28;20185;-64
2021/07/18 03:33:31;;;;;;;1999.90;999.90;;;;;;;20.34;71.32;101460.13;15552888;28;20092;-63
2021/07/18 03:41:04;;;;;;;1999.90;999.90;;;;;;;20.27;71.39;101462.84;15535067;28;20565;-65
2021/07/18 03:48:36;;;;;;;1999.90;999.90;;;;;;;20.37;71.39;101465.84;15553193;28;20058;-63
2021/07/18 03:56:10;;;;;;;1999.90;999.90;;;;;;;20.37;72.01;101459.34;15552622;28;20450;-64
2021/07/18 04:03:46;;;;;;;1999.90;999.90;;;;;;;20.31;72.27;101458.03;15544236;28;20093;-62
2021/07/18 04:11:19;;;;;;;1999.90;999.90;;;;;;;20.30;72.75;101459.25;15563688;28;20042;-62
2021/07/18 04:18:52;;;;;;;1999.90;999.90;;;;;;;20.47;72.47;101470.06;15562784;28;20545;-65
2021/07/18 04:26:25;;;;;;;1999.90;999.90;;;;;;;20.46;72.48;101479.78;15562104;28;20038;-64
2021/07/18 04:33:57;;;;;;;1999.90;999.90;;;;;;;20.57;71.94;101497.75;15545405;28;20050;-64
2021/07/18 04:41:31;;;;;;;1999.90;999.90;;;;;;;20.82;71.45;101498.09;15544280;28;20092;-63
2021/07/18 04:49:03;;;;;;;1999.90;999.90;;;;;;;20.84;71.71;101484.38;15507922;28;20038;-64
2021/07/18 04:56:46;;;;;;;1999.90;999.90;;;;;;;21.06;71.42;101485.47;15560236;28;20042;-63
2021/07/18 05:04:19;;;;;;;1999.90;999.90;;;;;;;20.92;71.02;101497.41;15542618;28;20387;-65
2021/07/18 05:11:52;;;;;;;1999.90;999.90;;;;;;;21.37;70.80;101512.63;15761763;22;20461;-67
2021/07/18 05:19:24;;;;;;;1999.90;999.90;;;;;;;21.58;69.69;101510.03;15815144;28;20229;-64
2021/07/18 05:26:58;;;;;;;1999.90;999.90;;;;;;;21.99;68.67;101509.16;15856062;28;20492;-65
2021/07/18 05:34:32;;;;;;;1999.90;999.90;;;;;;;21.75;69.68;101502.88;15866252;28;20384;-66
2021/07/18 05:42:05;;;;;;;1999.90;999.90;;;;;;;22.48;68.09;101509.59;15846829;28;20413;-65
2021/07/18 05:49:38;;;;;;;1999.90;999.90;;;;;;;22.68;67.63;101512.19;15865584;28;20105;-65
2021/07/18 05:57:11;;;;;;;1999.90;999.90;;;;;;;22.64;67.71;101505.66;15864578;28;20111;-64
2021/07/18 06:04:44;;;;;;;1999.90;999.90;;;;;;;22.91;66.85;101512.75;15864149;28;20043;-64
2021/07/18 06:12:18;;;;;;;1999.90;999.90;;;;;;;23.35;65.83;101514.56;15844795;28;20396;-65
2021/07/18 06:19:50;;;;;;;1999.90;999.90;;;;;;;23.43;66.24;101519.06;15863325;28;20104;-65
2021/07/18 06:27:23;;;;;;;1999.90;999.90;;;;;;;23.54;64.64;101524.78;15842992;28;20040;-65
2021/07/18 06:34:55;;;;;;;1999.90;999.90;;;;;;;23.84;64.19;101527.31;15843623;28;20349;-64
2021/07/18 06:42:29;;;;;;;1999.90;999.90;;;;;;;24.36;62.72;101533.50;15860970;28;20112;-64
2021/07/18 06:50:01;;;;;;;1999.90;999.90;;;;;;;24.79;61.02;101547.69;15860860;28;20483;-65
2021/07/18 06:57:35;;;;;;;1999.90;999.90;;;;;;;24.69;60.59;101540.78;15838590;28;20043;-64
2021/07/18 07:05:08;;;;;;;1999.90;999.90;;;;;;;25.34;57.98;101547.97;15861350;28;20066;-64
2021/07/18 07:12:42;;;;;;;1999.90;999.90;;;;;;;25.63;59.00;101552.28;15860542;28;20055;-64
2021/07/18 07:20:15;;;;;;;1999.90;999.90;;;;;;;25.76;57.54;101541.25;15858320;28;20400;-63
2021/07/18 07:27:48;;;;;;;;;;;;;;;25.71;56.98;101538.81;15846134;28;20457;-62
2021/07/18 07:35:22;;;;;;;1999.90;999.90;;;;;;;25.97;55.99;101534.56;15867031;28;20003;-63
2021/07/18 07:42:55;;;;;;;1999.90;999.90;;;;;;;26.67;57.25;101535.19;15835855;28;20563;-64
2021/07/18 07:50:28;;;;;;;1999.90;999.90;;;;;;;26.93;54.31;101538.59;15825067;28;20098;-64
2021/07/18 07:58:02;;;;;;;1999.90;999.90;;;;;;;27.35;54.16;101530.75;15864087;28;20488;-64
2021/07/18 08:05:34;;;;;;;1999.90;999.90;;;;;;;27.61;53.14;101533.66;15845051;28;20043;-64
2021/07/18 08:13:08;;;;;;;;;;;;;;;27.86;50.35;101535.38;15856027;28;20111;-62
2021/07/18 08:20:40;;;;;;;1999.90;999.90;;;;;;;28.26;50.54;101533.50;15852499;28;19926;-63
2021/07/18 08:28:15;;;;;;;1999.90;999.90;;;;;;;28.53;51.22;101530.59;15866391;28;20181;-64
2021/07/18 08:35:47;;;;;;;1999.90;999.90;;;;;;;28.45;48.09;101529.94;15868465;28;20442;-65
2021/07/18 08:43:20;;;;;;;;;;;;;;;28.45;46.82;101529.09;15867428;28;20127;-65
2021/07/18 08:50:53;;;;;;;1999.90;999.90;;;;;;;28.30;48.15;101533.47;15865980;28;19958;-64
2021/07/18 08:58:29;;;;;;;1999.90;999.90;;;;;;;28.86;46.81;101525.84;15865174;28;20032;-65
2021/07/18 09:06:10;;;;;;;1999.90;999.90;;;;;;;29.04;45.99;101519.78;15847895;28;20139;-65
2021/07/18 09:13:55;;;;;;;1999.90;999.90;;;;;;;29.64;47.50;101520.56;15847228;28;20520;-64
2021/07/18 09:21:27;;;;;;;1999.90;999.90;;;;;;;29.45;45.41;101527.13;15846551;28;20104;-64
2021/07/18 09:29:02;;;;;;;1999.90;999.90;;;;;;;29.68;46.27;101527.03;15864645;28;20114;-65
2021/07/18 09:36:34;;;;;;;1999.90;999.90;;;;;;;29.62;45.47;101525.97;15829013;28;20104;-64
2021/07/18 09:44:08;;;;;;;1999.90;999.90;;;;;;;30.94;44.85;101525.50;15863200;28;20387;-66
2021/07/18 09:51:40;;;;;;;1999.90;999.90;;;;;;;30.67;44.24;101522.97;15845011;28;20143;-66
2021/07/18 09:59:13;;;;;;;1999.90;999.90;;;;;;;31.03;44.05;101511.25;15842216;28;20114;-65
2021/07/18 10:06:46;;;;;;;1999.90;999.90;;;;;;;31.49;45.44;101518.53;15820706;28;20051;-65
2021/07/18 10:14:20;;;;;;;1999.90;999.90;;;;;;;31.47;43.38;101508.72;15863894;28;20416;-64
2021/07/18 10:21:53;;;;;;;1999.90;999.90;;;;;;;31.46;44.60;101507.91;15851242;28;20071;-63
2021/07/18 10:29:27;;;;;;;1999.90;999.90;;;;;;;31.31;41.58;101498.09;15859211;28;20100;-63
2021/07/18 10:37:03;;;;;;;1999.90;999.90;;;;;;;31.65;43.29;101490.84;15843676;28;20052;-63
2021/07/18 10:44:44;;;;;;;1999.90;999.90;;;;;;;31.69;44.39;101488.69;15842808;28;20122;-62
2021/07/18 10:52:18;;;;;;;1999.90;999.90;;;;;;;31.71;44.50;101484.06;15861903;28;20138;-63
2021/07/18 10:59:53;;;;;;;1999.90;999.90;;;;;;;32.68;39.66;101488.19;15842703;28;20388;-63
2021/07/18 11:07:43;;;;;;;1999.90;999.90;;;;;;;32.93;40.89;101493.09;15833111;22;20052;-64
2021/07/18 11:15:35;;;;;;;1999.90;999.90;;;;;;;32.60;40.29;101489.72;15738028;28;20417;-62
2021/07/18 11:23:19;;;;;;;1999.90;999.90;;;;;;;33.41;42.18;101479.25;15772879;28;20042;-63
2021/07/18 11:30:53;;;;;;;1999.90;999.90;;;;;;;33.44;38.29;101474.59;15777248;28;20059;-63
2021/07/18 11:38:29;;;;;;;1999.90;999.90;;;;;;;33.58;39.37;101476.94;15778756;28;20058;-62
2021/07/18 11:46:03;;;;;;;1999.90;999.90;;;;;;;33.10;39.12;101478.41;15787338;28;20049;-63
2021/07/18 11:53:35;;;;;;;1999.90;999.90;;;;;;;33.92;40.14;101475.16;15785841;28;20412;-63
2021/07/18 12:01:09;;;;;;;1999.90;999.90;;;;;;;33.51;38.51;101457.78;15755700;28;20456;-62
2021/07/18 12:08:41;;;;;;;1999.90;999.90;;;;;;;32.37;41.50;101464.16;15741054;28;20093;-61
2021/07/18 12:16:15;;;;;;;1999.90;999.90;;;;;;;33.79;38.91;101450.00;15765882;28;20072;-62
2021/07/18 12:24:29;;;;;;;1999.90;999.90;;;;;;;34.93;36.81;101461.63;15757206;28;20064;-62
2021/07/18 12:32:04;;;;;;;1999.90;999.90;;;;;;;32.80;41.63;101446.03;15765340;28;20443;-63
2021/07/18 12:39:38;;;;;;;1999.90;999.90;;;;;;;34.69;37.27;101455.66;15778621;28;20091;-62
2021/07/18 12:47:33;;;;;;;1999.90;999.90;;;;;;;33.41;39.10;101435.06;15793062;28;20516;-62
2021/07/18 12:55:13;;;;;;;1999.90;999.90;;;;;;;32.98;39.22;101437.53;15788898;28;20056;-63
2021/07/18 13:02:47;;;;;;;1999.90;999.90;;;;;;;33.67;37.14;101439.38;15756416;28;20061;-63
2021/07/18 13:10:20;;;;;;;1999.90;999.90;;;;;;;31.55;40.86;101424.41;15791854;28;20500;-64
2021/07/18 13:17:56;;;;;;;1999.90;999.90;;;;;;;34.30;37.91;101435.03;15796215;28;20071;-62
2021/07/18 13:43:51;;;;;;;1999.90;999.90;;;;;;;30.32;42.47;101398.03;15778061;28;20044;-64
2021/07/18 13:51:28;;;;;;;1999.90;999.90;;;;;;;29.78;44.98;101393.69;15784701;28;20040;-62
2021/07/18 13:59:02;;;;;;;1999.90;999.90;;;;;;;30.70;43.27;101395.31;15793945;28;20082;-64
2021/07/18 14:06:34;;;;;;;1999.90;999.90;;;;;;;31.02;45.00;101391.47;15796541;28;20043;-64
2021/07/18 14:14:08;;;;;;;1999.90;999.90;;;;;;;30.57;42.02;101386.63;15802009;28;20052;-63
2021/07/18 14:21:40;;;;;;;1999.90;999.90;;;;;;;29.99;43.79;101380.00;15802724;28;20056;-63
2021/07/18 14:29:14;;;;;;;1999.90;999.90;;;;;;;30.21;43.79;101375.28;15802730;28;20440;-62
2021/07/18 14:36:46;;;;;;;1999.90;999.90;;;;;;;30.05;44.38;101367.50;15794942;28;20067;-63
2021/07/18 14:44:20;;;;;;;1999.90;999.90;;;;;;;30.10;42.18;101366.97;15792768;28;20433;-63
2021/07/18 14:51:53;;;;;;;1999.90;999.90;;;;;;;29.78;44.73;101369.84;15793054;28;20054;-64
2021/07/18 14:59:27;;;;;;;1999.90;999.90;;;;;;;29.52;45.38;101355.31;15792067;28;20040;-63
2021/07/18 15:06:59;;;;;;;1999.90;999.90;;;;;;;29.60;43.63;101353.09;15784753;28;20054;-63
2021/07/18 15:14:33;;;;;;;1999.90;999.90;;;;;;;29.74;44.33;101334.63;15792927;28;20601;-62
2021/07/18 15:22:06;;;;;;;1999.90;999.90;;;;;;;29.39;42.30;101325.66;15789333;28;20043;-64
2021/07/18 15:29:40;;;;;;;1999.90;999.90;;;;;;;29.29;44.44;101330.41;15790659;28;20036;-64
2021/07/18 15:37:13;;;;;;;1999.90;999.90;;;;;;;29.31;43.96;101333.63;15798273;28;20635;-63
2021/07/18 15:44:46;;;;;;;1999.90;999.90;;;;;;;28.94;45.49;101325.50;15798816;28;20048;-64
2021/07/18 15:52:19;;;;;;;1999.90;999.90;;;;;;;29.33;45.17;101316.75;15782629;28;20052;-63
2021/07/18 15:59:52;;;;;;;1999.90;999.90;;;;;;;29.22;43.86;101313.31;15808127;28;20492;-63
2021/07/18 16:07:24;;;;;;;1999.90;999.90;;;;;;;29.00;44.44;101307.28;15810617;28;20036;-63
2021/07/18 16:14:58;;;;;;;1999.90;999.90;;;;;;;28.63;45.40;101313.44;15794808;28;20055;-62
2021/07/18 16:22:30;;;;;;;1999.90;999.90;;;;;;;28.67;45.50;101302.72;15797215;28;20036;-63
2021/07/18 16:30:06;;;;;;;1999.90;999.90;;;;;;;28.78;46.10;101290.97;15793410;28;20040;-63
2021/07/18 16:37:38;;;;;;;1999.90;999.90;;;;;;;28.69;45.38;101286.66;15807863;28;20059;-61
2021/07/18 16:45:12;;;;;;;1999.90;999.90;;;;;;;28.73;45.36;101289.41;15808598;28;20565;-63
2021/07/18 16:52:44;;;;;;;1999.90;999.90;;;;;;;28.58;45.64;101283.22;15789492;28;20082;-63
2021/07/18 17:00:20;;;;;;;1999.90;999.90;;;;;;;28.57;46.44;101293.06;15808391;28;20044;-62
2021/07/18 17:07:52;;;;;;;1999.90;999.90;;;;;;;28.56;46.60;101296.38;15779773;28;20048;-61
2021/07/18 17:15:26;;;;;;;1999.90;999.90;;;;;;;27.85;49.13;101284.28;15802521;28;20039;-61
2021/07/18 17:22:58;;;;;;;1999.90;999.90;;;;;;;27.77;50.52;101294.25;15789417;28;20047;-62
2021/07/18 17:30:32;;;;;;;1999.90;999.90;;;;;;;27.97;48.55;101280.75;15797783;28;20044;-62
2021/07/18 17:38:04;;;;;;;1999.90;999.90;;;;;;;27.69;49.41;101282.09;15808356;28;20040;-61
2021/07/18 17:45:40;;;;;;;;;;;;;;;27.52;49.51;101274.63;15821964;28;20588;-61
2021/07/18 17:53:12;;;;;;;1999.90;999.90;;;;;;;27.38;48.84;101281.41;15798647;28;19924;-62
2021/07/18 18:00:46;;;;;;;1999.90;999.90;;;;;;;27.46;50.55;101277.19;15796494;28;20109;-62
2021/07/18 18:08:18;;;;;;;1999.90;999.90;;;;;;;27.41;50.63;101286.28;15799753;28;20040;-62
2021/07/18 18:15:52;;;;;;;1999.90;999.90;;;;;;;27.32;51.22;101286.03;15789656;28;20048;-61
2021/07/18 18:23:25;;;;;;;1999.90;999.90;;;;;;;27.01;50.34;101274.63;15778526;28;20440;-61
2021/07/18 18:30:58;;;;;;;1999.90;999.90;;;;;;;26.98;50.71;101275.47;15756473;28;20070;-62
2021/07/18 18:38:30;;;;;;;1999.90;999.90;;;;;;;26.83;51.27;101268.34;15787446;28;20032;-67
2021/07/18 18:46:04;;;;;;;;;;;;;;;26.89;52.77;101275.22;15803292;28;20046;-60
2021/07/18 18:53:36;;;;;;;1999.90;999.90;;;;;;;26.65;52.88;101270.66;15802295;28;20643;-61
2021/07/18 19:01:10;;;;;;;1999.90;999.90;;;;;;;26.51;53.12;101268.00;15791022;28;20488;-60
2021/07/18 19:08:42;;;;;;;1999.90;999.90;;;;;;;26.34;54.20;101284.94;15765529;28;20040;-58
2021/07/18 19:16:16;;;;;;;1999.90;999.90;;;;;;;26.17;54.81;101286.00;15793663;28;20040;-60
2021/07/18 19:23:48;;;;;;;1999.90;999.90;;;;;;;25.95;54.33;101287.44;15795981;28;20062;-62
2021/07/18 19:31:23;;;;;;;1999.90;999.90;;;;;;;25.86;55.88;101288.78;15802670;28;20082;-62
2021/07/18 19:38:56;;;;;;;1999.90;999.90;;;;;;;25.87;55.76;101298.19;15812809;28;20550;-62
2021/07/18 19:46:30;;;;;;;1999.90;999.90;;;;;;;25.81;56.29;101299.84;15810891;28;20075;-61
2021/07/18 19:54:03;;;;;;;1999.90;999.90;;;;;;;25.78;56.49;101307.25;15813239;28;20110;-62
2021/07/18 20:01:37;;;;;;;1999.90;999.90;;;;;;;25.78;56.00;101312.97;15805875;28;20288;-62
2021/07/18 20:09:10;;;;;;;1999.90;999.90;;;;;;;25.73;56.23;101312.59;15812099;28;20142;-61
2021/07/18 20:16:44;;;;;;;1999.90;999.90;;;;;;;25.67;56.83;101309.34;15805068;28;20532;-59
2021/07/18 20:24:16;;;;;;;1999.90;999.90;;;;;;;25.57;56.82;101304.56;15809955;28;20657;-60
2021/07/18 20:31:56;;;;;;;1999.90;999.90;;;;;;;25.52;57.10;101302.13;15812418;28;20048;-60
2021/07/18 20:39:29;;;;;;;1999.90;999.90;;;;;;;25.38;57.91;101302.28;15810118;28;20075;-60
2021/07/18 20:47:03;;;;;;;1999.90;999.90;;;;;;;25.28;58.26;101299.09;15809576;28;20068;-61
2021/07/18 20:54:36;;;;;;;1999.90;999.90;;;;;;;24.99;57.85;101307.00;15779365;28;20477;-61
2021/07/18 21:02:10;;;;;;;1999.90;999.90;;;;;;;25.07;57.49;101312.72;15805159;28;20048;-61
2021/07/18 21:09:42;;;;;;;1999.90;999.90;;;;;;;24.92;58.36;101321.34;15812298;28;20682;-62
2021/07/18 21:17:16;;;;;;;;;;;;;;;24.92;58.78;101318.50;15802799;28;20059;-62
2021/07/18 21:24:51;;;;;;;1999.90;999.90;;;;;;;24.64;58.00;101310.91;15804790;28;19983;-62
2021/07/18 21:32:25;;;;;;;1999.90;999.90;;;;;;;24.58;58.40;101312.56;15795265;28;20053;-63
2021/07/18 21:39:57;;;;;;;1999.90;999.90;;;;;;;24.35;59.13;101310.22;15792715;28;20101;-63
2021/07/18 21:47:31;;;;;;;1999.90;999.90;;;;;;;24.13;57.57;101305.78;15789209;28;20043;-63
2021/07/18 21:55:04;;;;;;;1999.90;999.90;;;;;;;23.86;56.18;101302.59;15789828;28;20077;-64
2021/07/18 22:02:39;;;;;;;1999.90;999.90;;;;;;;23.93;56.13;101313.97;15788156;28;20032;-63
2021/07/18 22:10:12;;;;;;;1999.90;999.90;;;;;;;23.86;55.93;101309.13;15804487;28;20094;-63
2021/07/18 22:17:47;;;;;;;1999.90;999.90;;;;;;;23.63;56.30;101322.97;15802636;28;20070;-63
2021/07/18 22:25:20;;;;;;;1999.90;999.90;;;;;;;23.46;57.62;101324.59;15803923;28;20564;-63
2021/07/18 22:32:53;;;;;;;1999.90;999.90;;;;;;;23.24;59.18;101328.63;15805532;28;20090;-63
2021/07/18 22:40:26;;;;;;;1999.90;999.90;;;;;;;23.40;59.46;101337.59;15804631;28;20044;-61
2021/07/18 22:47:59;;;;;;;1999.90;999.90;;;;;;;23.24;60.95;101340.03;15801689;28;20455;-63
2021/07/18 22:55:34;;;;;;;1999.90;999.90;;;;;;;23.07;61.71;101344.50;15802380;28;20067;-62
2021/07/18 23:03:09;;;;;;;1999.90;999.90;;;;;;;23.06;62.25;101342.88;15799791;28;20451;-63
2021/07/18 23:10:43;;;;;;;1999.90;999.90;;;;;;;23.29;62.22;101343.28;15729564;23;20083;-57
2021/07/18 23:18:16;;;;;;;1999.90;999.90;;;;;;;23.07;63.25;101352.22;15692952;28;20041;-58
2021/07/18 23:25:48;;;;;;;1999.90;999.90;;;;;;;23.00;62.78;101347.31;15720439;28;20049;-59
2021/07/18 23:33:22;;;;;;;1999.90;999.90;;;;;;;22.60;63.88;101343.50;15718312;28;20045;-59
2021/07/18 23:40:54;;;;;;;1999.90;999.90;;;;;;;22.51;64.50;101348.78;15733286;28;20051;-58
2021/07/18 23:48:28;;;;;;;1999.90;999.90;;;;;;;22.45;64.23;101350.34;15722401;28;20048;-55
2021/07/18 23:56:00;;;;;;;1999.90;999.90;;;;;;;22.24;63.10;101348.22;15734358;28;20409;-55
